Archival Weather

Snohomish County (Paine Fld)

Everett, Washington (KPAE)

Report from: Sunday, November 19, 2023 9:53 PM PST
Current time: Monday, June 17, 2024 1:29 AM PDT

Current weather – Weather history – Daily summaries
Weather forecast

Temperature5.6°C (42.1°F)
Dew point3.9°C (39.0°F)
Winds Calm
Visibility10 mi. (16.1 km)
Clouds Ceiling: Overcast 5,000 ft. (1,524 m)
Altimeter30.52 in.Hg (1034 mB)
Relative humidity89 %
Density altitude-1,711 ft. (-521 m)
Sea-level pressure103.4 kPa (1034 mB, 30.53 in.Hg)
Max temp last 6 hours8.3°C (46.9°F)
Min temp last 6 hours5.0°C (41.0°F)
Remarks Fully automated report
Automated weather observing station with precipitation discriminator
Pressure rising more slowly
Flight conditions Visual Meteorological Conditions
Raw dataKPAE 200553Z AUTO 00000KT 10SM OVC050 06/04 A3052 RMK AO2 SLP338 T00560039 10083 20050 51015
An error has occurred. This application may no longer respond until reloaded. Reload 🗙